Time;durP1;ratioP1;P1;durP2;ratioP2;P2;SDS_P1;SDS_P2;PMS_P1;PMS_P2;Temp;Humidity;BMP_temperature;BMP_pressure;BME280_temperature;BME280_humidity;BME280_pressure;Samples;Min_cycle;Max_cycle;Signal;HPM_P1;HPM_P2
2020/12/12 00:02:38;;;;;;;45.03;22.70;;;4.60;99.90;;;;;;10342304;28;20243;-81
2020/12/12 00:08:02;;;;;;;41.60;21.90;;;4.50;99.90;;;;;;10336789;28;20690;-81
2020/12/12 00:13:24;;;;;;;42.80;23.77;;;4.60;99.90;;;;;;10335649;28;20211;-81
2020/12/12 00:18:46;;;;;;;43.60;22.47;;;4.50;99.90;;;;;;10367725;28;20691;-82
2020/12/12 00:24:08;;;;;;;35.90;21.03;;;4.50;99.90;;;;;;10337294;28;20706;-81
2020/12/12 00:29:31;;;;;;;42.57;23.07;;;4.40;99.90;;;;;;10336267;28;20198;-81
2020/12/12 00:34:54;;;;;;;40.73;22.23;;;4.50;99.90;;;;;;10336357;28;20191;-81
2020/12/12 00:40:15;;;;;;;39.73;21.63;;;4.40;99.90;;;;;;10333311;28;20219;-81
2020/12/12 00:45:37;;;;;;;45.60;24.10;;;4.40;99.90;;;;;;10333541;28;20214;-82
2020/12/12 00:50:59;;;;;;;44.53;22.57;;;4.30;99.90;;;;;;10334263;28;20533;-81
2020/12/12 00:56:21;;;;;;;37.10;21.10;;;4.40;99.90;;;;;;10335124;28;20198;-81
2020/12/12 01:01:43;;;;;;;44.60;22.53;;;4.40;99.90;;;;;;10333973;28;20211;-81
2020/12/12 01:07:05;;;;;;;41.37;22.50;;;4.30;99.90;;;;;;10331719;28;20201;-82
2020/12/12 01:12:28;;;;;;;39.67;22.03;;;4.40;99.90;;;;;;10343965;28;20229;-81
2020/12/12 01:17:50;;;;;;;43.27;21.43;;;4.40;99.90;;;;;;10347953;28;20701;-82
2020/12/12 01:23:13;;;;;;;40.87;21.27;;;4.40;99.90;;;;;;10333401;28;20584;-81
2020/12/12 01:28:35;;;;;;;36.60;20.30;;;4.30;99.90;;;;;;10334250;28;20199;-82
2020/12/12 01:33:56;;;;;;;38.27;21.57;;;4.30;99.90;;;;;;10333581;28;20702;-82
2020/12/12 01:39:19;;;;;;;41.70;21.27;;;4.20;99.90;;;;;;10333808;28;20206;-82
2020/12/12 01:44:40;;;;;;;36.67;20.67;;;4.20;99.90;;;;;;10332905;28;20209;-82
2020/12/12 01:50:03;;;;;;;38.37;21.17;;;4.20;99.90;;;;;;10333576;28;20207;-82
2020/12/12 01:55:26;;;;;;;36.13;20.80;;;4.20;99.90;;;;;;10294770;28;20199;-81
2020/12/12 02:00:47;;;;;;;34.77;19.43;;;4.30;99.90;;;;;;10309706;28;20223;-81
2020/12/12 02:06:12;;;;;;;35.43;20.70;;;4.10;99.90;;;;;;10332986;28;20961;-81
2020/12/12 02:11:36;;;;;;;38.93;20.80;;;4.10;99.90;;;;;;10330918;28;20268;-81
2020/12/12 02:17:00;;;;;;;34.60;19.93;;;4.20;99.90;;;;;;10331764;28;20571;-81
2020/12/12 02:22:22;;;;;;;35.60;20.30;;;4.10;99.90;;;;;;10331689;28;20245;-81
2020/12/12 02:27:44;;;;;;;35.83;20.73;;;4.00;99.90;;;;;;10330660;28;20203;-81
2020/12/12 02:33:06;;;;;;;33.40;20.43;;;4.00;99.90;;;;;;10332007;28;20211;-81
2020/12/12 02:38:28;;;;;;;34.93;19.33;;;4.00;99.90;;;;;;10330308;28;20518;-81
2020/12/12 02:43:50;;;;;;;38.50;20.30;;;3.90;99.90;;;;;;10330559;28;20711;-81
2020/12/12 02:49:12;;;;;;;37.33;20.30;;;3.90;99.90;;;;;;10291314;28;20190;-81
2020/12/12 02:54:34;;;;;;;38.40;20.70;;;4.00;99.90;;;;;;10325633;28;20210;-81
2020/12/12 02:59:56;;;;;;;33.27;20.33;;;4.10;99.90;;;;;;10329656;28;20227;-81
2020/12/12 03:05:18;;;;;;;34.73;20.77;;;4.20;99.90;;;;;;10333378;28;20191;-81
2020/12/12 03:10:41;;;;;;;37.03;20.57;;;4.20;99.90;;;;;;10337062;28;20207;-82
2020/12/12 03:16:03;;;;;;;35.20;20.00;;;4.30;99.90;;;;;;10336684;28;20199;-82
2020/12/12 03:21:24;;;;;;;36.87;21.23;;;4.20;99.90;;;;;;10337511;28;20234;-82
2020/12/12 03:26:47;;;;;;;38.17;22.07;;;4.20;99.90;;;;;;10336659;28;20203;-82
2020/12/12 03:32:10;;;;;;;34.60;20.70;;;4.10;99.90;;;;;;10336893;28;20229;-81
2020/12/12 03:37:31;;;;;;;39.63;20.97;;;4.10;99.90;;;;;;10335398;28;20199;-82
2020/12/12 03:42:54;;;;;;;39.60;20.67;;;4.00;99.90;;;;;;10333796;28;20234;-81
2020/12/12 03:48:16;;;;;;;33.43;20.27;;;3.90;99.90;;;;;;10313937;28;20204;-81
2020/12/12 03:53:38;;;;;;;40.57;21.77;;;4.10;99.90;;;;;;10328023;28;20857;-81
2020/12/12 03:59:00;;;;;;;43.13;21.80;;;4.10;99.90;;;;;;10330882;28;20206;-81
2020/12/12 04:04:22;;;;;;;41.77;21.70;;;4.00;99.90;;;;;;10334213;28;20194;-81
2020/12/12 04:09:43;;;;;;;38.40;22.17;;;4.10;99.90;;;;;;10335474;28;20231;-81
2020/12/12 04:15:06;;;;;;;43.30;22.23;;;4.00;99.90;;;;;;10334431;28;20191;-82
2020/12/12 04:20:27;;;;;;;38.80;22.67;;;4.00;99.90;;;;;;10335643;28;20236;-81
2020/12/12 04:25:49;;;;;;;43.63;23.83;;;4.00;99.90;;;;;;10336723;28;20191;-81
2020/12/12 04:31:12;;;;;;;39.70;22.23;;;3.90;99.90;;;;;;10334333;28;20708;-81
2020/12/12 04:36:33;;;;;;;39.37;22.97;;;3.90;99.90;;;;;;10332227;28;20205;-81
2020/12/12 04:41:55;;;;;;;42.10;21.97;;;3.80;99.90;;;;;;10331601;28;20234;-81
2020/12/12 04:47:19;;;;;;;38.83;22.17;;;3.90;99.90;;;;;;10330037;28;20712;-81
2020/12/12 04:52:42;;;;;;;40.73;23.27;;;3.70;99.90;;;;;;10329931;28;20225;-81
2020/12/12 04:58:04;;;;;;;40.07;22.90;;;3.80;99.90;;;;;;10330988;28;20191;-81
2020/12/12 05:03:27;;;;;;;39.90;23.20;;;3.70;99.90;;;;;;10332498;28;20222;-82
2020/12/12 05:08:49;;;;;;;42.63;23.47;;;3.80;99.90;;;;;;10332964;28;20565;-81
2020/12/12 05:14:10;;;;;;;40.03;22.53;;;3.80;99.90;;;;;;10338568;28;20230;-82
2020/12/12 05:19:33;;;;;;;39.30;22.00;;;3.70;99.90;;;;;;10352779;28;20226;-81
2020/12/12 05:24:55;;;;;;;39.37;23.27;;;3.80;99.90;;;;;;10350063;28;20198;-81
2020/12/12 05:30:17;;;;;;;43.40;22.93;;;3.80;99.90;;;;;;10332674;28;20623;-82
2020/12/12 05:35:40;;;;;;;40.47;22.23;;;3.80;99.90;;;;;;10332271;28;20237;-82
2020/12/12 05:41:01;;;;;;;35.67;21.83;;;3.90;99.90;;;;;;10333531;28;20219;-81
2020/12/12 05:46:24;;;;;;;38.80;21.77;;;3.90;99.90;;;;;;10334180;28;20187;-81
2020/12/12 05:51:52;;;;;;;39.93;21.40;;;4.00;99.90;;;;;;10331421;28;20226;-81
2020/12/12 05:57:15;;;;;;;40.97;22.87;;;3.90;99.90;;;;;;10333446;28;20364;-81
2020/12/12 06:02:39;;;;;;;44.10;23.13;;;3.90;99.90;;;;;;10331789;28;20222;-81
2020/12/12 06:08:03;;;;;;;39.53;22.70;;;3.80;99.90;;;;;;10331638;28;20205;-81
2020/12/12 06:13:26;;;;;;;41.27;22.83;;;3.80;99.90;;;;;;10331431;28;20229;-81
2020/12/12 06:18:57;;;;;;;39.60;23.27;;;3.90;99.90;;;;;;10349577;28;20224;-82
2020/12/12 06:24:20;;;;;;;41.17;22.63;;;3.90;99.90;;;;;;10369850;28;20215;-82
2020/12/12 06:29:45;;;;;;;44.60;23.57;;;4.00;99.90;;;;;;10334126;28;20696;-81
2020/12/12 06:35:06;;;;;;;45.83;23.87;;;4.00;99.90;;;;;;10330494;28;20198;-80
2020/12/12 06:40:40;;;;;;;46.50;24.27;;;3.80;99.90;;;;;;10296472;28;20222;-81
2020/12/12 06:46:04;;;;;;;41.07;22.53;;;3.80;99.90;;;;;;10332028;28;20770;-80
2020/12/12 06:51:36;;;;;;;41.00;24.10;;;3.90;99.90;;;;;;10336765;28;20214;-81
2020/12/12 06:56:59;;;;;;;44.80;24.27;;;3.80;99.90;;;;;;10337311;28;20259;-80
2020/12/12 07:02:20;;;;;;;42.90;24.23;;;3.70;99.90;;;;;;10338410;28;20599;-81
2020/12/12 07:07:43;;;;;;;41.10;23.23;;;3.80;99.90;;;;;;10339220;28;20197;-81
2020/12/12 07:13:06;;;;;;;44.87;25.50;;;3.80;99.90;;;;;;10340034;28;20557;-80
2020/12/12 07:18:28;;;;;;;49.83;25.77;;;3.80;99.90;;;;;;10360076;28;20190;-81
2020/12/12 07:23:50;;;;;;;44.83;24.57;;;3.90;99.90;;;;;;10378115;28;20869;-81
2020/12/12 07:29:13;;;;;;;48.07;24.97;;;3.80;99.90;;;;;;10337144;28;20205;-80
2020/12/12 07:34:34;;;;;;;52.33;24.10;;;3.70;99.90;;;;;;10341533;28;20195;-80
2020/12/12 07:39:56;;;;;;;41.73;24.83;;;3.80;99.90;;;;;;10338463;28;20229;-80
2020/12/12 07:45:32;;;;;;;47.03;24.57;;;3.90;99.90;;;;;;10339102;28;20564;-81
2020/12/12 07:50:54;;;;;;;46.70;25.10;;;3.90;99.90;;;;;;10337359;28;20249;-80
2020/12/12 07:56:17;;;;;;;42.33;22.43;;;4.00;99.90;;;;;;10334754;28;20197;-79
2020/12/12 08:01:40;;;;;;;42.10;23.93;;;3.90;99.90;;;;;;10337748;28;20715;-79
2020/12/12 08:07:13;;;;;;;43.87;24.67;;;3.90;99.90;;;;;;10316614;28;20203;-79
2020/12/12 08:12:36;;;;;;;43.43;23.87;;;3.80;99.90;;;;;;10325191;28;20208;-78
2020/12/12 08:18:10;;;;;;;42.77;25.27;;;3.90;99.90;;;;;;10322187;28;20199;-80
2020/12/12 08:23:31;;;;;;;41.87;25.50;;;3.90;99.90;;;;;;10335287;28;20226;-83
2020/12/12 08:28:59;;;;;;;45.17;23.87;;;4.00;99.90;;;;;;10332992;28;20934;-84
2020/12/12 08:34:22;;;;;;;40.80;23.87;;;3.80;99.90;;;;;;10331557;28;20213;-83
2020/12/12 08:39:44;;;;;;;41.83;23.57;;;3.90;99.90;;;;;;10330553;28;20374;-81
2020/12/12 08:45:13;;;;;;;41.77;21.97;;;4.00;99.90;;;;;;10318074;28;20199;-80
2020/12/12 08:50:50;;;;;;;44.50;23.87;;;4.10;99.90;;;;;;10309448;28;20211;-80
2020/12/12 08:56:14;;;;;;;46.90;23.70;;;4.00;99.90;;;;;;10321986;28;20206;-80
2020/12/12 09:01:39;;;;;;;42.17;22.57;;;4.20;99.90;;;;;;10319363;28;20298;-80
2020/12/12 09:07:02;;;;;;;35.60;21.47;;;4.10;99.90;;;;;;10328625;28;20771;-81
2020/12/12 09:12:23;;;;;;;44.00;24.07;;;4.20;99.90;;;;;;10334507;28;20305;-82
2020/12/12 09:17:59;;;;;;;38.07;21.87;;;4.20;99.90;;;;;;10342297;28;20196;-82
2020/12/12 09:23:22;;;;;;;44.30;24.17;;;4.20;99.90;;;;;;10330616;28;20254;-83
2020/12/12 09:28:43;;;;;;;39.10;22.43;;;4.30;99.90;;;;;;10309027;28;20203;-83
2020/12/12 09:34:06;;;;;;;37.70;22.77;;;4.30;99.90;;;;;;10307768;28;20241;-87
2020/12/12 09:39:28;;;;;;;40.87;23.27;;;4.30;99.90;;;;;;10338867;28;20195;-81
2020/12/12 09:44:50;;;;;;;37.83;20.83;;;4.30;99.90;;;;;;10322689;28;20207;-82
2020/12/12 09:50:11;;;;;;;38.67;21.73;;;4.30;99.90;;;;;;10340312;28;20910;-83
2020/12/12 09:55:35;;;;;;;34.80;19.63;;;4.40;99.90;;;;;;10317750;28;20196;-81
2020/12/12 10:00:57;;;;;;;36.13;20.47;;;4.30;99.90;;;;;;10339472;28;20223;-80
2020/12/12 10:06:18;;;;;;;31.23;19.47;;;4.30;99.90;;;;;;10335199;28;20195;-82
2020/12/12 10:11:41;;;;;;;32.60;19.50;;;4.40;99.90;;;;;;10338391;28;20219;-81
2020/12/12 10:17:03;;;;;;;33.30;19.03;;;4.40;99.90;;;;;;10349454;28;20655;-79
2020/12/12 10:22:25;;;;;;;31.77;19.37;;;4.50;99.90;;;;;;10369483;28;20903;-80
2020/12/12 10:27:48;;;;;;;35.07;20.63;;;4.70;99.90;;;;;;10327373;28;20191;-81
2020/12/12 10:33:10;;;;;;;34.37;19.87;;;4.80;99.90;;;;;;10319405;28;20204;-80
2020/12/12 10:38:34;;;;;;;34.80;19.60;;;4.80;99.90;;;;;;10307947;28;20210;-80
2020/12/12 10:43:57;;;;;;;34.13;20.20;;;4.80;99.90;;;;;;10337435;28;20215;-80
2020/12/12 10:49:19;;;;;;;37.33;19.67;;;4.90;99.90;;;;;;10341811;28;20202;-82
2020/12/12 10:54:45;;;;;;;32.27;18.97;;;5.00;99.90;;;;;;10348436;28;20199;-80
2020/12/12 11:00:08;;;;;;;37.10;20.40;;;4.90;99.90;;;;;;10316005;28;20424;-81
2020/12/12 11:05:30;;;;;;;30.80;19.17;;;4.90;99.90;;;;;;10380156;28;20253;-82
2020/12/12 11:10:52;;;;;;;31.93;18.93;;;5.00;99.90;;;;;;10378745;28;20229;-79
2020/12/12 11:16:19;;;;;;;31.97;19.00;;;4.80;99.90;;;;;;10334115;28;20203;-80
2020/12/12 11:21:40;;;;;;;35.20;20.03;;;5.10;99.90;;;;;;10315652;28;20230;-82
2020/12/12 11:27:02;;;;;;;31.30;18.67;;;5.10;99.90;;;;;;10340445;28;20330;-82
2020/12/12 11:32:25;;;;;;;33.53;19.67;;;5.30;99.90;;;;;;10350422;28;20215;-81
2020/12/12 11:38:08;;;;;;;33.90;18.93;;;5.40;99.90;;;;;;10338885;28;20611;-80
2020/12/12 11:43:55;;;;;;;33.03;18.97;;;5.20;99.90;;;;;;10338235;28;20219;-81
2020/12/12 11:49:19;;;;;;;34.43;18.87;;;5.20;99.90;;;;;;10339095;28;20195;-81
2020/12/12 11:54:41;;;;;;;32.40;19.00;;;5.60;99.90;;;;;;10339938;28;20227;-80
2020/12/12 12:00:08;;;;;;;34.10;19.40;;;5.40;99.90;;;;;;10325048;28;20222;-81
2020/12/12 12:05:30;;;;;;;36.63;21.37;;;5.50;99.90;;;;;;10316725;28;20200;-80
2020/12/12 12:11:08;;;;;;;33.17;21.03;;;5.80;99.90;;;;;;10329371;28;20220;-82
2020/12/12 12:16:35;;;;;;;33.37;18.73;;;5.70;99.90;;;;;;10326447;28;20337;-80
2020/12/12 12:21:58;;;;;;;34.77;20.90;;;5.70;99.90;;;;;;10359325;28;20219;-80
2020/12/12 12:27:20;;;;;;;36.07;20.63;;;5.70;99.90;;;;;;10349505;28;20214;-82
2020/12/12 12:32:41;;;;;;;31.87;18.30;;;5.70;99.90;;;;;;10341545;28;20215;-80
2020/12/12 12:38:04;;;;;;;33.13;19.47;;;5.50;99.90;;;;;;10340896;28;20195;-82
2020/12/12 12:43:26;;;;;;;35.37;19.83;;;5.50;99.90;;;;;;10311569;28;20234;-81
2020/12/12 12:48:48;;;;;;;35.70;19.63;;;5.60;99.90;;;;;;10310734;28;20202;-82
2020/12/12 12:54:11;;;;;;;33.30;19.40;;;5.60;99.90;;;;;;10313561;28;20223;-83
2020/12/12 12:59:32;;;;;;;34.13;20.50;;;5.40;99.90;;;;;;10321654;28;20385;-82
2020/12/12 13:04:54;;;;;;;32.87;19.13;;;5.30;99.90;;;;;;10319829;28;20210;-82
2020/12/12 13:10:17;;;;;;;30.63;18.63;;;5.50;99.90;;;;;;10301068;28;20323;-82
2020/12/12 13:15:39;;;;;;;34.23;19.73;;;5.40;99.90;;;;;;10299685;28;20204;-82
2020/12/12 13:21:03;;;;;;;33.93;19.80;;;5.60;99.90;;;;;;10313213;28;20226;-82
2020/12/12 13:26:26;;;;;;;31.07;20.07;;;5.60;99.90;;;;;;10280540;28;20314;-82
2020/12/12 13:31:48;;;;;;;32.00;19.43;;;5.70;99.90;;;;;;10285121;28;20211;-83
2020/12/12 13:37:09;;;;;;;29.23;19.23;;;5.40;99.90;;;;;;10278743;28;20259;-82
2020/12/12 13:42:34;;;;;;;31.13;20.23;;;5.30;99.90;;;;;;10282862;28;20219;-86
2020/12/12 13:47:55;;;;;;;31.67;20.17;;;5.30;99.90;;;;;;10284285;28;20203;-80
2020/12/12 13:53:17;;;;;;;31.20;18.90;;;5.60;99.90;;;;;;10294205;28;20215;-81
2020/12/12 13:58:40;;;;;;;28.90;19.07;;;5.60;99.90;;;;;;10286673;28;20207;-80
2020/12/12 14:04:01;;;;;;;33.03;21.63;;;5.40;99.90;;;;;;10271241;28;20213;-82
2020/12/12 14:09:42;;;;;;;34.73;20.17;;;5.30;99.90;;;;;;10266386;28;20207;-82
2020/12/12 14:32:05;;;;;;;30.40;19.37;;;5.60;99.90;;;;;;10275831;28;20216;-83
2020/12/12 14:37:27;;;;;;;28.87;18.93;;;5.40;99.90;;;;;;10325453;28;20203;-82
2020/12/12 14:42:48;;;;;;;30.70;19.83;;;5.30;99.90;;;;;;10329816;28;20592;-80
2020/12/12 14:48:11;;;;;;;30.43;19.33;;;5.30;99.90;;;;;;10330604;28;20199;-84
2020/12/12 14:53:33;;;;;;;29.97;19.60;;;5.30;99.90;;;;;;10328492;28;20234;-86
2020/12/12 14:58:55;;;;;;;30.97;19.63;;;5.30;99.90;;;;;;10329273;28;20203;-83
2020/12/12 15:04:17;;;;;;;27.47;18.77;;;5.30;99.90;;;;;;10336618;28;20566;-86
2020/12/12 15:09:39;;;;;;;28.50;19.27;;;5.20;99.90;;;;;;10334754;28;20201;-80
2020/12/12 15:15:01;;;;;;;28.07;17.50;;;5.10;99.90;;;;;;10327820;28;20226;-80
2020/12/12 15:20:24;;;;;;;29.33;18.73;;;5.20;99.90;;;;;;10363168;28;20752;-80
2020/12/12 15:25:45;;;;;;;29.70;19.53;;;5.20;99.90;;;;;;10341645;28;20195;-80
2020/12/12 15:31:07;;;;;;;28.83;18.97;;;5.30;99.90;;;;;;10338865;28;20207;-79
2020/12/12 15:36:30;;;;;;;26.93;18.37;;;5.30;99.90;;;;;;10339484;28;20269;-82
2020/12/12 15:41:52;;;;;;;31.90;19.77;;;5.30;99.90;;;;;;10340451;28;20227;-85
2020/12/12 15:47:15;;;;;;;29.40;19.00;;;5.40;99.90;;;;;;10310137;28;20228;-84
2020/12/12 15:52:38;;;;;;;30.60;19.37;;;5.30;99.90;;;;;;10331526;28;20234;-86
2020/12/12 15:57:59;;;;;;;29.83;20.03;;;5.20;99.90;;;;;;10329161;28;20203;-83
2020/12/12 16:03:21;;;;;;;28.67;19.10;;;5.10;99.90;;;;;;10327325;28;20230;-85
2020/12/12 16:08:44;;;;;;;27.37;18.93;;;5.10;99.90;;;;;;10320406;28;20198;-84
2020/12/12 16:14:05;;;;;;;27.83;18.50;;;5.20;99.90;;;;;;10340948;28;20227;-84
2020/12/12 16:19:27;;;;;;;27.70;18.73;;;5.20;99.90;;;;;;10341643;28;20199;-83
2020/12/12 16:24:49;;;;;;;28.97;19.83;;;5.20;99.90;;;;;;10324456;28;20230;-83
2020/12/12 16:30:12;;;;;;;28.47;19.10;;;5.40;99.90;;;;;;10305224;28;20219;-82
2020/12/12 16:35:35;;;;;;;29.07;18.13;;;5.20;99.90;;;;;;10334036;28;20556;-83
2020/12/12 16:40:58;;;;;;;31.43;18.83;;;5.20;99.90;;;;;;10306368;28;20223;-81
2020/12/12 16:46:20;;;;;;;30.40;18.30;;;5.10;99.90;;;;;;10334234;28;20203;-82
2020/12/12 16:51:41;;;;;;;31.63;19.33;;;5.00;99.90;;;;;;10307262;28;20581;-80
2020/12/12 16:57:04;;;;;;;29.80;18.20;;;5.00;99.90;;;;;;10330875;28;20198;-82
2020/12/12 17:02:26;;;;;;;29.47;20.33;;;5.10;99.90;;;;;;10333830;28;20223;-80
2020/12/12 17:07:49;;;;;;;32.03;21.13;;;5.20;99.90;;;;;;10335184;28;20222;-83
2020/12/12 17:13:12;;;;;;;33.67;20.63;;;5.20;99.90;;;;;;10334403;28;20334;-82
2020/12/12 17:18:34;;;;;;;34.20;21.50;;;5.10;99.90;;;;;;10324435;28;20219;-81
2020/12/12 17:23:55;;;;;;;34.60;20.30;;;5.30;99.90;;;;;;10325334;28;20215;-80
2020/12/12 17:29:18;;;;;;;36.03;20.10;;;5.30;99.90;;;;;;10330206;28;20211;-78
2020/12/12 17:34:40;;;;;;;32.63;20.93;;;5.20;99.90;;;;;;10329780;28;20227;-79
2020/12/12 17:40:02;;;;;;;35.97;21.63;;;5.20;99.90;;;;;;10315447;28;20220;-82
2020/12/12 17:45:25;;;;;;;33.23;20.50;;;5.20;99.90;;;;;;10293698;28;20191;-81
2020/12/12 17:50:47;;;;;;;33.17;19.60;;;5.20;99.90;;;;;;10309899;28;20214;-79
2020/12/12 17:56:09;;;;;;;37.50;21.60;;;5.20;99.90;;;;;;10328876;28;20238;-79
2020/12/12 18:01:37;;;;;;;31.83;21.20;;;5.10;99.90;;;;;;10328299;28;20273;-78
2020/12/12 18:06:59;;;;;;;34.67;20.27;;;5.10;99.90;;;;;;10326831;28;20206;-78
2020/12/12 18:12:21;;;;;;;32.90;20.80;;;5.20;99.90;;;;;;10327185;28;20218;-78
2020/12/12 18:17:45;;;;;;;31.90;20.70;;;5.40;99.90;;;;;;10327037;28;20203;-79
2020/12/12 18:23:07;;;;;;;36.90;21.43;;;5.30;99.90;;;;;;10326457;28;20219;-78
2020/12/12 18:28:29;;;;;;;35.10;20.83;;;5.20;99.90;;;;;;10326531;28;20213;-78
2020/12/12 18:33:52;;;;;;;34.50;21.00;;;5.20;99.90;;;;;;10324084;28;20214;-78
2020/12/12 18:39:14;;;;;;;34.10;20.97;;;5.20;99.90;;;;;;10335696;28;20191;-78
2020/12/12 18:44:36;;;;;;;32.23;21.27;;;5.20;99.90;;;;;;10370294;28;20229;-77
2020/12/12 18:49:59;;;;;;;33.23;20.90;;;5.10;99.90;;;;;;10364426;28;20716;-78
2020/12/12 18:55:21;;;;;;;33.90;19.50;;;5.20;99.90;;;;;;10293949;28;20275;-78
2020/12/12 19:00:43;;;;;;;33.03;20.47;;;5.20;99.90;;;;;;10293999;28;20234;-79
2020/12/12 19:06:05;;;;;;;34.67;21.63;;;5.30;99.90;;;;;;10296700;28;20215;-79
2020/12/12 19:11:28;;;;;;;35.93;21.77;;;5.40;99.90;;;;;;10296391;28;20563;-79
2020/12/12 19:16:50;;;;;;;37.93;21.37;;;5.20;99.90;;;;;;10302093;28;20201;-79
2020/12/12 19:22:14;;;;;;;37.57;21.23;;;5.20;99.90;;;;;;10362693;28;20706;-78
2020/12/12 19:27:37;;;;;;;36.63;20.83;;;5.30;99.90;;;;;;10296802;28;20200;-79
2020/12/12 19:32:58;;;;;;;34.70;19.87;;;4.90;99.90;;;;;;10293936;28;20207;-79
2020/12/12 19:38:21;;;;;;;38.43;21.03;;;5.00;99.90;;;;;;10295663;28;20199;-79
2020/12/12 19:43:44;;;;;;;37.83;20.33;;;5.00;99.90;;;;;;10304822;28;20287;-77
2020/12/12 19:49:05;;;;;;;35.73;20.60;;;5.00;99.90;;;;;;10342279;28;20191;-79
2020/12/12 20:09:59;;;;;;;36.90;20.40;;;4.80;99.90;;;;;;11890319;23;20320;-83
2020/12/12 20:15:21;;;;;;;40.23;21.60;;;4.90;99.90;;;;;;10298670;28;20646;-83
2020/12/12 20:20:43;;;;;;;36.63;21.03;;;4.90;99.90;;;;;;10320849;28;20746;-85
2020/12/12 20:26:06;;;;;;;34.33;20.17;;;5.00;99.90;;;;;;10313053;28;20258;-83
2020/12/12 20:31:28;;;;;;;43.00;21.57;;;5.00;99.90;;;;;;10297097;28;20295;-84
2020/12/12 20:36:50;;;;;;;39.63;21.77;;;5.00;99.90;;;;;;10293672;28;20199;-82
2020/12/12 20:42:13;;;;;;;40.13;22.20;;;5.20;99.90;;;;;;10290544;28;20282;-81
2020/12/12 20:47:34;;;;;;;39.40;20.73;;;5.20;99.90;;;;;;10287396;28;20228;-84
2020/12/12 20:52:56;;;;;;;36.03;20.07;;;5.10;99.90;;;;;;10278695;28;20307;-84
2020/12/12 20:58:19;;;;;;;41.70;20.90;;;5.00;99.90;;;;;;10298902;28;20284;-83
2020/12/12 21:03:41;;;;;;;38.63;20.57;;;4.90;99.90;;;;;;10294791;28;20325;-84
2020/12/12 21:09:03;;;;;;;36.67;19.43;;;5.00;99.90;;;;;;10292431;28;20618;-83
2020/12/12 21:14:26;;;;;;;34.97;19.10;;;5.00;99.90;;;;;;10292179;28;20251;-83
2020/12/12 21:19:48;;;;;;;33.10;17.33;;;4.90;99.90;;;;;;10290832;28;20256;-84
2020/12/12 21:25:10;;;;;;;27.10;16.47;;;4.90;99.90;;;;;;10272166;28;20227;-84
2020/12/12 21:30:32;;;;;;;32.40;16.60;;;4.60;99.90;;;;;;10282838;28;20282;-82
2020/12/12 21:35:54;;;;;;;32.53;17.50;;;4.50;99.90;;;;;;10296616;28;20190;-84
2020/12/12 21:41:16;;;;;;;33.37;18.33;;;4.70;99.90;;;;;;10265994;28;20227;-83
2020/12/12 21:46:38;;;;;;;35.27;18.43;;;4.80;99.90;;;;;;10265198;28;20212;-83
2020/12/12 21:52:00;;;;;;;34.97;19.20;;;4.80;99.90;;;;;;10289266;28;20217;-83
2020/12/12 21:57:27;;;;;;;31.90;18.13;;;4.60;99.90;;;;;;10301188;28;20200;-83
2020/12/12 22:02:50;;;;;;;31.03;18.93;;;4.60;99.90;;;;;;10300532;28;20587;-82
2020/12/12 22:08:13;;;;;;;33.97;20.07;;;4.80;99.90;;;;;;10300526;28;20204;-83
2020/12/12 22:13:34;;;;;;;33.10;19.03;;;4.70;99.90;;;;;;10312613;28;20691;-82
2020/12/12 22:18:57;;;;;;;35.53;19.03;;;4.60;99.90;;;;;;10337204;28;20199;-80
2020/12/12 22:24:19;;;;;;;34.60;19.53;;;4.70;99.90;;;;;;10328482;28;20220;-82
2020/12/12 22:29:40;;;;;;;39.40;20.27;;;4.50;99.90;;;;;;10313533;28;20195;-80
2020/12/12 22:35:04;;;;;;;40.53;20.93;;;4.60;99.90;;;;;;10313212;28;20219;-82
2020/12/12 22:40:26;;;;;;;36.40;21.20;;;4.70;99.90;;;;;;10313744;28;20203;-83
2020/12/12 22:45:47;;;;;;;35.33;20.17;;;4.60;99.90;;;;;;10311725;28;20568;-83
2020/12/12 22:51:10;;;;;;;36.13;20.20;;;4.50;99.90;;;;;;10313437;28;20747;-81
2020/12/12 22:56:31;;;;;;;38.73;21.60;;;4.40;99.90;;;;;;10313401;28;20206;-81
2020/12/12 23:01:53;;;;;;;37.00;19.43;;;4.60;99.90;;;;;;10313684;28;20234;-83
2020/12/12 23:07:16;;;;;;;39.00;21.73;;;4.50;99.90;;;;;;10316670;28;20676;-83
2020/12/12 23:12:38;;;;;;;41.10;20.93;;;4.50;99.90;;;;;;10313471;28;20599;-82
2020/12/12 23:17:59;;;;;;;37.63;20.77;;;4.50;99.90;;;;;;10324816;28;20559;-83
2020/12/12 23:23:22;;;;;;;39.63;20.20;;;4.60;99.90;;;;;;10346352;28;20219;-82
2020/12/12 23:28:43;;;;;;;38.13;20.83;;;4.60;99.90;;;;;;10316573;28;20192;-83
2020/12/12 23:34:05;;;;;;;39.37;20.93;;;4.50;99.90;;;;;;10316968;28;20215;-84
2020/12/12 23:39:28;;;;;;;39.17;20.37;;;4.60;99.90;;;;;;10306073;28;20218;-84
2020/12/12 23:44:50;;;;;;;35.63;21.57;;;4.80;99.90;;;;;;10305031;28;20715;-83
2020/12/12 23:50:13;;;;;;;36.43;20.77;;;4.80;99.90;;;;;;10305272;28;20219;-83
2020/12/12 23:55:36;;;;;;;37.97;21.50;;;4.80;99.90;;;;;;10305353;28;20223;-83
